createdAt,value
2022-10-22T00:02:27.817Z,100033.00
2022-10-22T00:04:56.780Z,100038.00
2022-10-22T00:07:23.326Z,100041.00
2022-10-22T00:09:49.981Z,100051.00
2022-10-22T00:12:16.912Z,100042.00
2022-10-22T00:14:44.036Z,100038.00
2022-10-22T00:17:11.762Z,100040.00
2022-10-22T00:19:39.299Z,100046.00
2022-10-22T00:22:06.756Z,100039.00
2022-10-22T00:24:34.479Z,100029.00
2022-10-22T00:27:01.251Z,100029.00
2022-10-22T00:29:28.024Z,100027.00
2022-10-22T00:34:22.590Z,100041.00
2022-10-22T00:36:50.227Z,100023.00
2022-10-22T00:39:18.572Z,100024.00
2022-10-22T00:41:46.681Z,100029.00
2022-10-22T00:44:51.539Z,100024.00
2022-10-22T00:47:18.800Z,100012.00
2022-10-22T00:49:46.448Z,99993.00
2022-10-22T00:52:13.372Z,100010.00
2022-10-22T00:54:40.458Z,100020.00
2022-10-22T00:57:07.179Z,100026.00
2022-10-22T00:59:33.738Z,100037.00
2022-10-22T01:02:00.221Z,100037.00
2022-10-22T01:04:26.731Z,100032.00
2022-10-22T01:06:57.865Z,100045.00
2022-10-22T01:09:37.102Z,100053.00
2022-10-22T01:12:12.490Z,100057.00
2022-10-22T01:14:55.335Z,100049.00
2022-10-22T01:17:32.656Z,100046.00
2022-10-22T01:20:30.159Z,100048.00
2022-10-22T01:23:10.297Z,100048.00
2022-10-22T01:25:58.118Z,100054.00
2022-10-22T01:28:42.935Z,100037.00
2022-10-22T01:31:10.918Z,100024.00
2022-10-22T01:33:38.204Z,100017.00
2022-10-22T01:36:05.037Z,100012.00
2022-10-22T01:38:31.643Z,100019.00
2022-10-22T01:40:58.422Z,100022.00
2022-10-22T01:43:24.936Z,100014.00
2022-10-22T01:45:54.512Z,100012.00
2022-10-22T01:48:35.237Z,100024.00
2022-10-22T01:51:23.550Z,100026.00
2022-10-22T01:54:14.976Z,100024.00
2022-10-22T01:56:47.337Z,100030.00
2022-10-22T01:59:41.862Z,100040.00
2022-10-22T02:02:54.088Z,100041.00
2022-10-22T02:05:37.101Z,100036.00
2022-10-22T02:08:14.837Z,100038.00
2022-10-22T02:10:45.042Z,100040.00
2022-10-22T02:13:18.527Z,100037.00
2022-10-22T02:15:49.689Z,100037.00
2022-10-22T02:18:16.727Z,100039.00
2022-10-22T02:20:43.199Z,100051.00
2022-10-22T02:23:10.345Z,100055.00
2022-10-22T02:25:39.654Z,100048.00
2022-10-22T02:28:24.879Z,100040.00
2022-10-22T02:30:57.265Z,100026.00
2022-10-22T02:33:45.825Z,100028.00
2022-10-22T02:36:12.706Z,100025.00
2022-10-22T02:38:39.923Z,100025.00
2022-10-22T02:41:06.584Z,100034.00
2022-10-22T02:43:40.518Z,100028.00
2022-10-22T02:46:07.302Z,100025.00
2022-10-22T02:48:33.869Z,100030.00
2022-10-22T02:51:00.355Z,100026.00
2022-10-22T02:53:26.809Z,100028.00
2022-10-22T02:55:53.319Z,100039.00
2022-10-22T02:58:19.818Z,100043.00
2022-10-22T03:00:46.307Z,100049.00
2022-10-22T03:03:12.778Z,100052.00
2022-10-22T03:05:39.335Z,100044.00
2022-10-22T03:08:05.799Z,100046.00
2022-10-22T03:10:32.344Z,100038.00
2022-10-22T03:12:58.876Z,100037.00
2022-10-22T03:15:25.438Z,100038.00
2022-10-22T03:17:51.908Z,100033.00
2022-10-22T03:20:18.388Z,100031.00
2022-10-22T03:22:45.063Z,100031.00
2022-10-22T03:25:15.388Z,100029.00
2022-10-22T03:27:42.272Z,100023.00
2022-10-22T03:30:09.970Z,100027.00
2022-10-22T03:32:36.454Z,100027.00
2022-10-22T03:35:03.185Z,100032.00
2022-10-22T03:37:30.260Z,100030.00
2022-10-22T03:39:56.855Z,100027.00
2022-10-22T03:42:23.940Z,100037.00
2022-10-22T03:44:50.958Z,100039.00
2022-10-22T03:47:17.453Z,100034.00
2022-10-22T03:49:43.964Z,100034.00
2022-10-22T03:52:13.038Z,100031.00
2022-10-22T03:54:40.268Z,100030.00
2022-10-22T03:57:06.932Z,100031.00
2022-10-22T03:59:43.277Z,100029.00
2022-10-22T04:02:11.215Z,100037.00
2022-10-22T04:04:37.964Z,100044.00
2022-10-22T04:07:05.766Z,100042.00
2022-10-22T04:09:33.425Z,100046.00
2022-10-22T04:12:00.774Z,100050.00
2022-10-22T04:14:27.450Z,100063.00
2022-10-22T04:16:54.650Z,100056.00
2022-10-22T04:19:21.178Z,100063.00
2022-10-22T04:21:48.050Z,100066.00
2022-10-22T04:24:14.590Z,100069.00
2022-10-22T04:26:41.375Z,100082.00
2022-10-22T04:29:11.846Z,100083.00
2022-10-22T04:31:41.680Z,100085.00
2022-10-22T04:34:08.429Z,100083.00
2022-10-22T04:36:34.964Z,100076.00
2022-10-22T04:39:02.102Z,100070.00
2022-10-22T04:41:31.613Z,100070.00
2022-10-22T04:43:58.544Z,100062.00
2022-10-22T04:46:27.520Z,100059.00
2022-10-22T04:48:54.595Z,100061.00
2022-10-22T04:51:22.753Z,100062.00
2022-10-22T04:53:49.580Z,100065.00
2022-10-22T04:56:30.375Z,100068.00
2022-10-22T04:59:02.128Z,100075.00
2022-10-22T05:01:31.149Z,100069.00
2022-10-22T05:03:59.827Z,100065.00
2022-10-22T05:06:27.153Z,100061.00
2022-10-22T05:08:56.471Z,100069.00
2022-10-22T05:11:25.663Z,100075.00
2022-10-22T05:13:52.368Z,100067.00
2022-10-22T05:16:19.005Z,100064.00
2022-10-22T05:18:48.035Z,100074.00
2022-10-22T05:21:17.566Z,100076.00
2022-10-22T05:23:45.429Z,100067.00
2022-10-22T05:26:13.592Z,100078.00
2022-10-22T05:28:40.610Z,100080.00
2022-10-22T05:31:08.484Z,100078.00
2022-10-22T05:33:35.399Z,100085.00
2022-10-22T05:36:02.855Z,100088.00
2022-10-22T05:38:29.390Z,100077.00
2022-10-22T05:41:09.058Z,100074.00
2022-10-22T05:43:35.949Z,100075.00
2022-10-22T05:46:04.346Z,100069.00
2022-10-22T05:51:20.926Z,100062.00
2022-10-22T05:53:52.302Z,100085.00
2022-10-22T05:56:18.955Z,100089.00
2022-10-22T05:58:45.774Z,100100.00
2022-10-22T06:01:23.808Z,100101.00
2022-10-22T06:03:53.520Z,100100.00
2022-10-22T06:06:49.373Z,100105.00
2022-10-22T06:09:28.079Z,100110.00
2022-10-22T06:11:55.639Z,100109.00
2022-10-22T06:14:22.522Z,100103.00
2022-10-22T06:16:49.331Z,100104.00
2022-10-22T06:19:18.198Z,100101.00
2022-10-22T06:21:45.100Z,100094.00
2022-10-22T06:24:12.250Z,100091.00
2022-10-22T06:26:39.174Z,100099.00
2022-10-22T06:29:05.897Z,100110.00
2022-10-22T06:31:38.728Z,100108.00
2022-10-22T06:34:11.747Z,100112.00
2022-10-22T06:36:38.849Z,100117.00
2022-10-22T06:39:05.541Z,100128.00
2022-10-22T06:41:32.006Z,100137.00
2022-10-22T06:43:58.505Z,100155.00
2022-10-22T06:46:26.055Z,100161.00
2022-10-22T06:48:57.496Z,100152.00
2022-10-22T06:51:24.980Z,100161.00
2022-10-22T06:53:51.552Z,100154.00
2022-10-22T06:56:21.282Z,100151.00
2022-10-22T06:58:49.120Z,100156.00
2022-10-22T07:01:17.499Z,100151.00
2022-10-22T07:03:43.963Z,100156.00
2022-10-22T07:06:13.409Z,100164.00
2022-10-22T07:08:41.215Z,100154.00
2022-10-22T07:11:07.775Z,100160.00
2022-10-22T07:13:34.564Z,100147.00
2022-10-22T07:16:01.104Z,100155.00
2022-10-22T07:18:27.550Z,100159.00
2022-10-22T07:20:54.164Z,100162.00
2022-10-22T07:23:20.639Z,100165.00
2022-10-22T07:25:47.341Z,100170.00
2022-10-22T07:28:14.233Z,100164.00
2022-10-22T07:30:40.876Z,100172.00
2022-10-22T07:33:07.390Z,100170.00
2022-10-22T07:35:34.442Z,100181.00
2022-10-22T07:38:01.431Z,100175.00
2022-10-22T07:40:27.888Z,100176.00
2022-10-22T07:42:54.520Z,100184.00
2022-10-22T07:45:21.077Z,100188.00
2022-10-22T07:47:48.157Z,100186.00
2022-10-22T07:50:15.436Z,100183.00
2022-10-22T07:52:42.133Z,100200.00
2022-10-22T07:55:09.098Z,100196.00
2022-10-22T07:57:37.145Z,100195.00
2022-10-22T08:00:08.189Z,100198.00
2022-10-22T08:02:40.459Z,100207.00
2022-10-22T08:05:07.852Z,100214.00
2022-10-22T08:07:34.331Z,100209.00
2022-10-22T08:10:00.771Z,100207.00
2022-10-22T08:12:27.257Z,100216.00
2022-10-22T08:14:53.931Z,100220.00
2022-10-22T08:17:20.360Z,100218.00
2022-10-22T08:19:46.853Z,100223.00
2022-10-22T08:22:13.335Z,100222.00
2022-10-22T08:24:40.032Z,100219.00
2022-10-22T08:27:06.492Z,100229.00
2022-10-22T08:29:33.085Z,100224.00
2022-10-22T08:31:59.673Z,100225.00
2022-10-22T08:34:26.298Z,100224.00
2022-10-22T08:36:52.748Z,100239.00
2022-10-22T08:39:19.291Z,100230.00
2022-10-22T08:41:59.154Z,100228.00
2022-10-22T08:44:47.701Z,100241.00
2022-10-22T08:47:46.539Z,100242.00
2022-10-22T08:50:17.919Z,100238.00
2022-10-22T08:52:46.528Z,100242.00
2022-10-22T08:55:14.699Z,100244.00
2022-10-22T08:57:45.705Z,100244.00
2022-10-22T09:00:15.994Z,100241.00
2022-10-22T09:03:07.201Z,100247.00
2022-10-22T09:06:03.298Z,100257.00
2022-10-22T09:08:30.152Z,100249.00
2022-10-22T09:11:09.483Z,100238.00
2022-10-22T09:13:35.916Z,100248.00
2022-10-22T09:16:15.554Z,100243.00
2022-10-22T09:18:52.345Z,100253.00
2022-10-22T09:21:37.609Z,100249.00
2022-10-22T09:24:13.294Z,100254.00
2022-10-22T09:26:40.104Z,100259.00
2022-10-22T09:29:07.317Z,100267.00
2022-10-22T09:31:34.310Z,100270.00
2022-10-22T09:34:06.015Z,100270.00
2022-10-22T09:36:33.101Z,100272.00
2022-10-22T09:38:59.639Z,100273.00
2022-10-22T09:41:31.630Z,100280.00
2022-10-22T09:43:59.229Z,100274.00
2022-10-22T09:46:30.081Z,100274.00
2022-10-22T09:49:07.244Z,100264.00
2022-10-22T09:51:54.012Z,100265.00
2022-10-22T09:54:26.511Z,100279.00
2022-10-22T09:56:58.895Z,100278.00
2022-10-22T09:59:29.001Z,100288.00
2022-10-22T10:02:13.406Z,100281.00
2022-10-22T10:04:49.861Z,100287.00
2022-10-22T10:07:19.217Z,100288.00
2022-10-22T10:09:46.246Z,100279.00
2022-10-22T10:13:00.985Z,100285.00
2022-10-22T10:15:48.993Z,100280.00
2022-10-22T10:18:34.229Z,100284.00
2022-10-22T10:21:32.777Z,100290.00
2022-10-22T10:24:13.964Z,100284.00
2022-10-22T10:26:55.509Z,100274.00
2022-10-22T10:32:42.929Z,100285.00
2022-10-22T10:35:21.197Z,100288.00
2022-10-22T10:38:05.972Z,100290.00
2022-10-22T10:40:32.427Z,100289.00
2022-10-22T10:43:27.573Z,100291.00
2022-10-22T10:48:51.050Z,100293.00
2022-10-22T10:51:32.261Z,100287.00
2022-10-22T10:54:23.496Z,100289.00
2022-10-22T10:57:02.533Z,100286.00
2022-10-22T10:59:45.774Z,100288.00
2022-10-22T11:02:18.307Z,100285.00
2022-10-22T11:04:57.900Z,100292.00
2022-10-22T11:07:34.781Z,100291.00
2022-10-22T11:10:08.818Z,100291.00
2022-10-22T11:12:40.988Z,100293.00
2022-10-22T11:15:32.465Z,100289.00
2022-10-22T11:18:27.713Z,100287.00
2022-10-22T11:21:05.419Z,100289.00
2022-10-22T11:23:44.398Z,100296.00
2022-10-22T11:26:27.053Z,100295.00
2022-10-22T11:28:53.924Z,100301.00
2022-10-22T11:31:25.306Z,100294.00
2022-10-22T11:33:57.326Z,100292.00
2022-10-22T11:36:36.950Z,100292.00
2022-10-22T11:39:04.361Z,100292.00
2022-10-22T11:41:32.242Z,100294.00
2022-10-22T11:43:59.521Z,100297.00
2022-10-22T11:46:31.988Z,100298.00
2022-10-22T11:49:13.947Z,100302.00
2022-10-22T11:51:42.272Z,100298.00
2022-10-22T11:54:33.767Z,100292.00
2022-10-22T11:57:17.003Z,100304.00
2022-10-22T11:59:52.154Z,100295.00
2022-10-22T12:02:27.672Z,100296.00
2022-10-22T12:05:17.350Z,100294.00
2022-10-22T12:07:58.415Z,100302.00
2022-10-22T12:10:34.308Z,100293.00
2022-10-22T12:13:24.834Z,100299.00
2022-10-22T12:15:54.279Z,100287.00
2022-10-22T12:18:24.715Z,100288.00
2022-10-22T12:20:53.049Z,100288.00
2022-10-22T12:23:21.277Z,100294.00
2022-10-22T12:25:48.444Z,100295.00
2022-10-22T12:28:16.132Z,100295.00
2022-10-22T12:30:42.598Z,100296.00
2022-10-22T12:33:22.486Z,100297.00
2022-10-22T12:35:52.942Z,100299.00
2022-10-22T12:38:22.605Z,100302.00
2022-10-22T12:40:50.963Z,100297.00
2022-10-22T12:43:20.245Z,100304.00
2022-10-22T12:45:48.695Z,100310.00
2022-10-22T12:48:25.379Z,100301.00
2022-10-22T12:50:57.897Z,100293.00
2022-10-22T12:53:39.301Z,100299.00
2022-10-22T12:56:08.415Z,100303.00
2022-10-22T12:58:48.048Z,100302.00
2022-10-22T13:01:16.647Z,100305.00
2022-10-22T13:03:46.514Z,100301.00
2022-10-22T13:06:18.980Z,100301.00
2022-10-22T13:08:56.038Z,100299.00
2022-10-22T13:11:22.637Z,100307.00
2022-10-22T13:13:49.146Z,100309.00
2022-10-22T13:16:21.438Z,100299.00
2022-10-22T13:18:48.636Z,100300.00
2022-10-22T13:21:35.021Z,100303.00
2022-10-22T13:24:03.632Z,100308.00
2022-10-22T13:26:37.710Z,100309.00
2022-10-22T13:29:10.589Z,100317.00
2022-10-22T13:31:38.162Z,100316.00
2022-10-22T13:34:11.686Z,100313.00
2022-10-22T13:36:39.414Z,100318.00
2022-10-22T13:39:08.140Z,100316.00
2022-10-22T13:41:37.971Z,100318.00
2022-10-22T13:44:04.480Z,100313.00
2022-10-22T13:46:31.321Z,100306.00
2022-10-22T13:48:59.830Z,100315.00
2022-10-22T13:51:34.813Z,100313.00
2022-10-22T13:54:01.810Z,100314.00
2022-10-22T13:56:28.373Z,100323.00
2022-10-22T13:58:54.827Z,100322.00
2022-10-22T14:01:24.025Z,100324.00
2022-10-22T14:03:52.509Z,100330.00
2022-10-22T14:06:20.065Z,100325.00
2022-10-22T14:08:50.568Z,100334.00
2022-10-22T14:11:17.671Z,100335.00
2022-10-22T14:13:44.693Z,100335.00
2022-10-22T14:16:18.274Z,100338.00
2022-10-22T14:18:44.970Z,100335.00
2022-10-22T14:21:13.552Z,100341.00
2022-10-22T14:23:41.681Z,100346.00
2022-10-22T14:26:10.319Z,100345.00
2022-10-22T14:28:46.079Z,100337.00
2022-10-22T14:31:18.360Z,100343.00
2022-10-22T14:33:44.911Z,100350.00
2022-10-22T14:36:15.275Z,100349.00
2022-10-22T14:38:43.070Z,100346.00
2022-10-22T14:41:22.041Z,100356.00
2022-10-22T14:43:49.212Z,100363.00
2022-10-22T14:46:16.711Z,100352.00
2022-10-22T14:48:43.758Z,100360.00
2022-10-22T14:51:13.493Z,100357.00
2022-10-22T14:53:40.027Z,100365.00
2022-10-22T14:56:06.866Z,100356.00
2022-10-22T14:58:33.393Z,100364.00
2022-10-22T15:01:02.351Z,100368.00
2022-10-22T15:03:29.030Z,100362.00
2022-10-22T15:05:55.972Z,100372.00
2022-10-22T15:08:22.450Z,100367.00
2022-10-22T15:10:59.854Z,100372.00
2022-10-22T15:13:27.399Z,100382.00
2022-10-22T15:15:53.895Z,100382.00
2022-10-22T15:18:20.423Z,100380.00
2022-10-22T15:20:55.324Z,100386.00
2022-10-22T15:23:21.842Z,100376.00
2022-10-22T15:25:48.355Z,100378.00
2022-10-22T15:28:14.854Z,100378.00
2022-10-22T15:30:41.436Z,100378.00
2022-10-22T15:33:08.144Z,100388.00
2022-10-22T15:35:34.673Z,100388.00
2022-10-22T15:38:01.155Z,100399.00
2022-10-22T15:40:27.640Z,100401.00
2022-10-22T15:42:54.159Z,100398.00
2022-10-22T15:45:22.394Z,100401.00
2022-10-22T15:47:49.262Z,100392.00
2022-10-22T15:50:16.311Z,100399.00
2022-10-22T15:52:43.035Z,100397.00
2022-10-22T15:55:10.719Z,100401.00
2022-10-22T15:57:38.289Z,100400.00
2022-10-22T16:00:06.678Z,100400.00
2022-10-22T16:02:38.984Z,100398.00
2022-10-22T16:05:05.856Z,100405.00
2022-10-22T16:07:32.323Z,100402.00
2022-10-22T16:10:00.326Z,100401.00
2022-10-22T16:12:26.850Z,100400.00
2022-10-22T16:14:53.360Z,100405.00
2022-10-22T16:17:19.968Z,100395.00
2022-10-22T16:19:47.617Z,100406.00
2022-10-22T16:22:15.668Z,100411.00
2022-10-22T16:24:42.364Z,100413.00
2022-10-22T16:27:09.214Z,100410.00
2022-10-22T16:29:38.460Z,100418.00
2022-10-22T16:32:05.301Z,100429.00
2022-10-22T16:34:31.836Z,100426.00
2022-10-22T16:36:58.369Z,100425.00
2022-10-22T16:39:25.020Z,100423.00
2022-10-22T16:41:51.744Z,100422.00
2022-10-22T16:44:21.250Z,100430.00
2022-10-22T16:46:47.725Z,100426.00
2022-10-22T16:49:14.208Z,100425.00
2022-10-22T16:51:40.691Z,100429.00
2022-10-22T16:54:09.912Z,100435.00
2022-10-22T16:56:38.937Z,100428.00
2022-10-22T16:59:06.490Z,100437.00
2022-10-22T17:01:36.755Z,100439.00
2022-10-22T17:04:06.168Z,100450.00
2022-10-22T17:06:32.588Z,100459.00
2022-10-22T17:08:59.282Z,100455.00
2022-10-22T17:11:25.879Z,100449.00
2022-10-22T17:13:53.881Z,100456.00
2022-10-22T17:16:22.961Z,100464.00
2022-10-22T17:18:49.395Z,100472.00
2022-10-22T17:21:16.411Z,100469.00
2022-10-22T17:23:43.069Z,100470.00
2022-10-22T17:26:17.824Z,100480.00
2022-10-22T17:28:44.575Z,100479.00
2022-10-22T17:31:24.216Z,100481.00
2022-10-22T17:33:52.247Z,100484.00
2022-10-22T17:36:19.469Z,100486.00
2022-10-22T17:38:50.407Z,100484.00
2022-10-22T17:41:19.512Z,100484.00
2022-10-22T17:46:19.901Z,100499.00
2022-10-22T17:48:52.825Z,100494.00
2022-10-22T17:51:20.078Z,100498.00
2022-10-22T17:53:47.113Z,100501.00
2022-10-22T17:56:16.583Z,100500.00
2022-10-22T17:58:43.082Z,100507.00
2022-10-22T18:01:34.168Z,100501.00
2022-10-22T18:04:03.403Z,100504.00
2022-10-22T18:06:30.279Z,100504.00
2022-10-22T18:08:56.987Z,100501.00
2022-10-22T18:11:25.071Z,100506.00
2022-10-22T18:13:53.768Z,100508.00
2022-10-22T18:16:20.725Z,100506.00
2022-10-22T18:18:49.224Z,100507.00
2022-10-22T18:21:16.540Z,100507.00
2022-10-22T18:23:43.008Z,100501.00
2022-10-22T18:26:09.570Z,100507.00
2022-10-22T18:28:36.253Z,100505.00
2022-10-22T18:31:07.372Z,100504.00
2022-10-22T18:33:35.189Z,100509.00
2022-10-22T18:36:06.547Z,100500.00
2022-10-22T18:38:33.300Z,100502.00
2022-10-22T18:41:00.167Z,100510.00
2022-10-22T18:43:26.656Z,100513.00
2022-10-22T18:45:53.119Z,100520.00
2022-10-22T18:48:22.720Z,100515.00
2022-10-22T18:50:59.123Z,100515.00
2022-10-22T18:53:25.590Z,100514.00
2022-10-22T18:55:52.111Z,100508.00
2022-10-22T18:58:18.619Z,100514.00
2022-10-22T19:00:45.106Z,100516.00
2022-10-22T19:03:13.344Z,100518.00
2022-10-22T19:05:51.309Z,100511.00
2022-10-22T19:08:18.977Z,100513.00
2022-10-22T19:10:48.837Z,100516.00
2022-10-22T19:13:17.764Z,100519.00
2022-10-22T19:15:44.223Z,100522.00
2022-10-22T19:18:14.037Z,100520.00
2022-10-22T19:20:40.858Z,100518.00
2022-10-22T19:23:07.675Z,100521.00
2022-10-22T19:25:34.994Z,100526.00
2022-10-22T19:28:01.443Z,100530.00
2022-10-22T19:30:27.903Z,100520.00
2022-10-22T19:32:54.362Z,100526.00
2022-10-22T19:35:20.934Z,100540.00
2022-10-22T19:37:48.596Z,100533.00
2022-10-22T19:40:15.301Z,100539.00
2022-10-22T19:42:46.994Z,100539.00
2022-10-22T19:45:13.500Z,100539.00
2022-10-22T19:47:40.180Z,100537.00
2022-10-22T19:50:06.789Z,100546.00
2022-10-22T19:52:33.620Z,100554.00
2022-10-22T19:55:00.105Z,100552.00
2022-10-22T19:57:26.600Z,100555.00
2022-10-22T19:59:53.052Z,100557.00
2022-10-22T20:02:19.721Z,100557.00
2022-10-22T20:04:49.949Z,100554.00
2022-10-22T20:07:17.114Z,100553.00
2022-10-22T20:09:43.927Z,100561.00
2022-10-22T20:12:10.372Z,100572.00
2022-10-22T20:14:37.442Z,100566.00
2022-10-22T20:17:04.101Z,100564.00
2022-10-22T20:19:30.595Z,100569.00
2022-10-22T20:21:57.068Z,100570.00
2022-10-22T20:24:23.554Z,100580.00
2022-10-22T20:26:50.077Z,100589.00
2022-10-22T20:29:18.944Z,100586.00
2022-10-22T20:31:46.056Z,100577.00
2022-10-22T20:34:12.758Z,100592.00
2022-10-22T20:36:39.460Z,100591.00
2022-10-22T20:39:08.822Z,100591.00
2022-10-22T20:41:40.415Z,100596.00
2022-10-22T20:44:14.762Z,100600.00
2022-10-22T20:46:41.388Z,100593.00
2022-10-22T20:49:13.607Z,100596.00
2022-10-22T20:51:40.273Z,100601.00
2022-10-22T20:54:07.454Z,100596.00
2022-10-22T20:56:36.042Z,100598.00
2022-10-22T20:59:05.636Z,100610.00
2022-10-22T21:01:42.879Z,100599.00
2022-10-22T21:04:09.420Z,100607.00
2022-10-22T21:06:40.372Z,100610.00
2022-10-22T21:09:07.936Z,100613.00
2022-10-22T21:11:35.982Z,100612.00
2022-10-22T21:14:03.495Z,100614.00
2022-10-22T21:16:30.136Z,100619.00
2022-10-22T21:18:56.694Z,100624.00
2022-10-22T21:21:23.241Z,100625.00
2022-10-22T21:23:50.292Z,100625.00
2022-10-22T21:26:18.437Z,100622.00
2022-10-22T21:28:45.263Z,100629.00
2022-10-22T21:31:21.550Z,100627.00
2022-10-22T21:33:49.858Z,100630.00
2022-10-22T21:36:20.248Z,100638.00
2022-10-22T21:38:49.537Z,100630.00
2022-10-22T21:41:17.488Z,100633.00
2022-10-22T21:43:45.495Z,100636.00
2022-10-22T21:46:17.284Z,100634.00
2022-10-22T21:48:44.283Z,100642.00
2022-10-22T21:51:13.677Z,100643.00
2022-10-22T21:53:40.876Z,100647.00
2022-10-22T21:56:08.583Z,100648.00
2022-10-22T21:58:35.734Z,100655.00
2022-10-22T22:01:02.863Z,100649.00
2022-10-22T22:03:29.431Z,100652.00
2022-10-22T22:06:00.436Z,100655.00
2022-10-22T22:08:27.528Z,100655.00
2022-10-22T22:11:04.645Z,100651.00
2022-10-22T22:13:31.538Z,100648.00
2022-10-22T22:16:15.768Z,100642.00
2022-10-22T22:18:42.458Z,100645.00
2022-10-22T22:21:14.094Z,100643.00
2022-10-22T22:23:43.752Z,100640.00
2022-10-22T22:26:10.828Z,100640.00
2022-10-22T22:28:37.665Z,100639.00
2022-10-22T22:31:31.231Z,100633.00
2022-10-22T22:34:05.795Z,100634.00
2022-10-22T22:36:35.628Z,100641.00
2022-10-22T22:39:03.667Z,100637.00
2022-10-22T22:41:30.497Z,100639.00
2022-10-22T22:43:57.017Z,100637.00
2022-10-22T22:46:23.540Z,100632.00
2022-10-22T22:48:50.818Z,100635.00
2022-10-22T22:51:17.735Z,100635.00
2022-10-22T22:53:44.326Z,100628.00
2022-10-22T22:56:19.440Z,100625.00
2022-10-22T22:58:45.987Z,100635.00
2022-10-22T23:01:17.884Z,100628.00
2022-10-22T23:03:46.956Z,100634.00
2022-10-22T23:06:14.037Z,100634.00
2022-10-22T23:08:40.861Z,100639.00
2022-10-22T23:11:13.428Z,100644.00
2022-10-22T23:13:41.595Z,100633.00
2022-10-22T23:16:13.714Z,100630.00
2022-10-22T23:18:40.627Z,100635.00
2022-10-22T23:21:13.962Z,100638.00
2022-10-22T23:23:46.561Z,100641.00
2022-10-22T23:26:14.416Z,100641.00
2022-10-22T23:28:40.995Z,100641.00
2022-10-22T23:31:07.799Z,100644.00
2022-10-22T23:33:35.026Z,100639.00
2022-10-22T23:36:02.035Z,100632.00
2022-10-22T23:38:28.817Z,100645.00
2022-10-22T23:40:56.866Z,100639.00
2022-10-22T23:43:26.914Z,100634.00
2022-10-22T23:45:53.702Z,100638.00
2022-10-22T23:48:20.530Z,100637.00
2022-10-22T23:50:47.590Z,100636.00
2022-10-22T23:53:14.365Z,100648.00
2022-10-22T23:55:42.369Z,100644.00
2022-10-22T23:58:09.728Z,100641.00
